createdAt,value
2019-04-20T00:01:29.453Z,8.10
2019-04-20T00:03:55.599Z,8.15
2019-04-20T00:06:25.013Z,7.12
2019-04-20T00:09:02.700Z,7.25
2019-04-20T00:11:31.119Z,10.77
2019-04-20T00:14:04.178Z,7.58
2019-04-20T00:16:27.275Z,8.53
2019-04-20T00:18:59.173Z,9.55
2019-04-20T00:21:47.060Z,10.60
2019-04-20T00:24:20.226Z,6.37
2019-04-20T00:27:11.770Z,7.30
2019-04-20T00:29:38.041Z,8.28
2019-04-20T00:31:59.354Z,6.00
2019-04-20T00:34:24.759Z,7.00
2019-04-20T00:36:47.548Z,8.03
2019-04-20T00:39:17.208Z,6.97
2019-04-20T00:41:51.487Z,6.70
2019-04-20T00:44:22.273Z,7.13
2019-04-20T00:47:03.158Z,8.40
2019-04-20T00:49:30.741Z,8.60
2019-04-20T00:52:13.154Z,8.00
2019-04-20T00:54:15.981Z,6.20
2019-04-20T00:56:45.351Z,6.62
2019-04-20T00:59:25.957Z,6.83
2019-04-20T01:02:06.444Z,6.57
2019-04-20T01:04:29.913Z,8.00
2019-04-20T01:07:17.551Z,6.85
2019-04-20T01:10:04.658Z,6.28
2019-04-20T01:12:35.628Z,6.97
2019-04-20T01:15:06.310Z,7.17
2019-04-20T01:17:33.939Z,5.80
2019-04-20T01:20:03.931Z,7.40
2019-04-20T01:22:40.230Z,6.95
2019-04-20T01:25:09.871Z,9.08
2019-04-20T01:27:42.153Z,8.40
2019-04-20T01:30:10.493Z,7.55
2019-04-20T01:32:50.682Z,5.50
2019-04-20T01:35:14.743Z,7.80
2019-04-20T01:37:47.634Z,6.80
2019-04-20T01:40:04.505Z,6.55
2019-04-20T01:42:32.149Z,6.92
2019-04-20T01:45:00.366Z,6.93
2019-04-20T01:47:34.493Z,7.55
2019-04-20T01:50:03.761Z,6.05
2019-04-20T01:52:45.496Z,5.47
2019-04-20T01:55:31.078Z,8.20
2019-04-20T01:58:00.609Z,6.33
2019-04-20T02:00:31.607Z,7.40
2019-04-20T02:03:15.316Z,4.95
2019-04-20T02:05:53.128Z,6.28
2019-04-20T02:08:18.364Z,6.08
2019-04-20T02:10:50.167Z,5.83
2019-04-20T02:13:13.348Z,7.08
2019-04-20T02:15:47.922Z,6.03
2019-04-20T02:18:28.171Z,8.43
2019-04-20T02:20:59.872Z,5.47
2019-04-20T02:23:24.964Z,5.20
2019-04-20T02:25:42.026Z,5.45
2019-04-20T02:28:27.273Z,6.83
2019-04-20T02:31:15.390Z,6.95
2019-04-20T02:33:59.178Z,6.97
2019-04-20T02:36:42.319Z,9.58
2019-04-20T02:39:30.645Z,8.03
2019-04-20T02:41:57.858Z,6.55
2019-04-20T02:44:40.437Z,6.62
2019-04-20T02:46:55.396Z,6.40
2019-04-20T02:51:59.749Z,5.65
2019-04-20T02:57:03.298Z,10.20
2019-04-20T03:01:54.999Z,8.63
2019-04-20T03:03:57.575Z,8.73
2019-04-20T03:06:35.084Z,8.57
2019-04-20T03:09:15.270Z,6.62
2019-04-20T03:11:52.756Z,7.30
2019-04-20T03:14:09.534Z,6.27
2019-04-20T03:16:39.753Z,6.50
2019-04-20T03:19:09.393Z,7.30
2019-04-20T03:21:45.353Z,7.92
2019-04-20T03:24:23.472Z,5.60
2019-04-20T03:27:19.190Z,9.00
2019-04-20T03:30:22.802Z,6.80
2019-04-20T03:33:02.195Z,8.30
2019-04-20T03:35:20.808Z,9.38
2019-04-20T03:37:50.984Z,7.30
2019-04-20T03:40:08.311Z,10.40
2019-04-20T03:42:26.725Z,9.18
2019-04-20T03:45:01.825Z,6.33
2019-04-20T03:47:35.944Z,8.15
2019-04-20T03:50:21.910Z,6.50
2019-04-20T03:53:05.826Z,6.65
2019-04-20T03:55:40.877Z,11.23
2019-04-20T03:58:29.235Z,7.78
2019-04-20T04:01:45.616Z,6.22
2019-04-20T04:04:09.488Z,6.67
2019-04-20T04:06:28.711Z,6.03
2019-04-20T04:09:03.424Z,6.27
2019-04-20T04:11:34.865Z,5.97
2019-04-20T04:13:50.456Z,6.42
2019-04-20T04:16:21.687Z,7.50
2019-04-20T04:18:59.291Z,5.62
2019-04-20T04:21:29.652Z,8.15
2019-04-20T04:24:03.587Z,6.37
2019-04-20T04:26:34.153Z,6.85
2019-04-20T04:29:18.113Z,7.17
2019-04-20T04:31:36.540Z,5.40
2019-04-20T04:34:13.472Z,11.30
2019-04-20T04:36:36.089Z,8.38
2019-04-20T04:39:08.653Z,6.10
2019-04-20T04:41:37.984Z,5.83
2019-04-20T04:44:03.123Z,5.58
2019-04-20T04:46:20.688Z,6.83
2019-04-20T04:48:51.694Z,8.93
2019-04-20T04:51:25.611Z,6.40
2019-04-20T04:53:58.102Z,6.92
2019-04-20T04:56:22.160Z,5.65
2019-04-20T04:58:51.641Z,8.93
2019-04-20T05:01:24.874Z,5.45
2019-04-20T05:04:14.622Z,5.28
2019-04-20T05:06:33.031Z,6.10
2019-04-20T05:08:58.445Z,7.67
2019-04-20T05:11:23.842Z,7.97
2019-04-20T05:13:58.472Z,4.90
2019-04-20T05:16:40.970Z,5.22
2019-04-20T05:19:13.339Z,6.92
2019-04-20T05:24:59.642Z,6.30
2019-04-20T05:27:43.234Z,5.97
2019-04-20T05:29:54.937Z,5.83
2019-04-20T05:32:34.871Z,4.93
2019-04-20T05:35:14.656Z,6.42
2019-04-20T05:37:50.122Z,7.47
2019-04-20T05:40:16.184Z,4.92
2019-04-20T05:42:52.832Z,4.55
2019-04-20T05:45:18.133Z,5.80
2019-04-20T05:47:48.029Z,7.30
2019-04-20T05:50:22.853Z,8.25
2019-04-20T05:52:56.317Z,6.65
2019-04-20T05:55:20.825Z,5.30
2019-04-20T05:57:56.986Z,5.42
2019-04-20T06:00:32.045Z,5.65
2019-04-20T06:02:56.044Z,6.12
2019-04-20T06:05:32.347Z,5.17
2019-04-20T06:07:54.949Z,4.37
2019-04-20T06:10:29.226Z,5.42
2019-04-20T06:12:51.619Z,7.17
2019-04-20T06:15:36.680Z,4.75
2019-04-20T06:18:16.732Z,4.95
2019-04-20T06:20:47.673Z,4.72
2019-04-20T06:26:19.417Z,5.05
2019-04-20T06:28:29.811Z,5.70
2019-04-20T06:31:10.744Z,7.72
2019-04-20T06:34:08.950Z,5.33
2019-04-20T06:36:47.448Z,5.10
2019-04-20T06:41:32.096Z,7.12
2019-04-20T06:44:00.643Z,7.70
2019-04-20T06:46:22.927Z,5.10
2019-04-20T06:49:04.337Z,6.60
2019-04-20T06:51:32.433Z,5.75
2019-04-20T06:53:59.636Z,4.80
2019-04-20T06:56:42.092Z,5.67
2019-04-20T06:59:15.950Z,6.17
2019-04-20T07:01:49.007Z,5.83
2019-04-20T07:04:29.013Z,10.08
2019-04-20T07:09:13.907Z,7.43
2019-04-20T07:11:42.602Z,5.20
2019-04-20T07:13:58.734Z,6.80
2019-04-20T07:16:44.741Z,6.75
2019-04-20T07:19:18.937Z,6.20
2019-04-20T07:24:48.884Z,6.97
2019-04-20T07:27:12.138Z,7.30
2019-04-20T07:29:46.051Z,5.45
2019-04-20T07:32:07.857Z,6.17
2019-04-20T07:34:41.381Z,6.80
2019-04-20T07:39:53.971Z,5.85
2019-04-20T07:42:27.267Z,6.15
2019-04-20T07:44:55.485Z,6.80
2019-04-20T07:47:26.201Z,4.85
2019-04-20T07:49:48.336Z,5.47
2019-04-20T07:51:59.616Z,6.33
2019-04-20T07:55:03.642Z,5.40
2019-04-20T07:57:14.668Z,6.00
2019-04-20T07:59:46.847Z,7.30
2019-04-20T08:02:42.540Z,8.95
2019-04-20T08:05:22.779Z,5.23
2019-04-20T08:07:56.302Z,9.03
2019-04-20T08:10:29.937Z,11.85
2019-04-20T08:13:11.127Z,5.87
2019-04-20T08:18:01.212Z,10.48
2019-04-20T08:20:25.812Z,5.80
2019-04-20T08:22:58.768Z,4.60
2019-04-20T08:25:26.884Z,6.45
2019-04-20T08:28:06.450Z,5.58
2019-04-20T08:31:10.020Z,5.30
2019-04-20T08:33:47.179Z,8.13
2019-04-20T08:36:19.994Z,5.10
2019-04-20T08:41:14.255Z,5.42
2019-04-20T08:46:16.974Z,10.80
2019-04-20T08:48:47.938Z,7.60
2019-04-20T08:51:12.179Z,6.50
2019-04-20T08:53:47.024Z,5.80
2019-04-20T08:56:09.976Z,3.87
2019-04-20T08:58:24.944Z,4.28
2019-04-20T09:00:58.212Z,4.60
2019-04-20T09:03:28.564Z,4.37
2019-04-20T09:06:02.685Z,5.65
2019-04-20T09:08:29.525Z,5.67
2019-04-20T09:11:16.771Z,5.20
2019-04-20T09:13:34.274Z,6.87
2019-04-20T09:15:56.300Z,6.80
2019-04-20T09:18:34.445Z,4.10
2019-04-20T09:21:03.394Z,4.90
2019-04-20T09:23:49.638Z,4.27
2019-04-20T09:26:18.193Z,6.13
2019-04-20T09:28:53.413Z,5.80
2019-04-20T09:31:29.770Z,8.68
2019-04-20T09:34:11.695Z,4.70
2019-04-20T09:37:02.714Z,6.75
2019-04-20T09:40:11.331Z,7.08
2019-04-20T09:42:31.803Z,7.60
2019-04-20T09:45:02.914Z,8.90
2019-04-20T09:47:39.310Z,7.30
2019-04-20T09:50:16.852Z,9.03
2019-04-20T09:52:49.111Z,11.05
2019-04-20T09:55:14.941Z,7.15
2019-04-20T09:57:51.247Z,7.95
2019-04-20T10:00:15.514Z,8.30
2019-04-20T10:02:33.454Z,8.30
2019-04-20T10:05:02.009Z,7.20
2019-04-20T10:07:33.944Z,8.23
2019-04-20T10:10:00.057Z,6.78
2019-04-20T10:12:29.353Z,6.10
2019-04-20T10:15:02.572Z,9.73
2019-04-20T10:17:29.997Z,8.58
2019-04-20T10:19:57.752Z,8.20
2019-04-20T10:22:26.880Z,7.37
2019-04-20T10:25:08.829Z,7.10
2019-04-20T10:27:41.874Z,5.80
2019-04-20T10:30:10.315Z,7.37
2019-04-20T10:32:43.054Z,7.35
2019-04-20T10:35:11.828Z,10.53
2019-04-20T10:37:43.287Z,8.93
2019-04-20T10:40:13.416Z,10.72
2019-04-20T10:42:42.011Z,8.15
2019-04-20T10:45:10.864Z,7.33
2019-04-20T10:47:39.447Z,7.62
2019-04-20T10:50:07.624Z,7.20
2019-04-20T10:52:36.096Z,7.50
2019-04-20T10:55:06.079Z,12.20
2019-04-20T10:57:35.420Z,13.70
2019-04-20T11:00:05.826Z,11.97
2019-04-20T11:02:35.112Z,11.85
2019-04-20T11:05:04.432Z,7.35
2019-04-20T11:07:42.609Z,8.65
2019-04-20T11:10:19.804Z,11.33
2019-04-20T11:12:44.257Z,9.20
2019-04-20T11:15:12.906Z,9.40
2019-04-20T11:17:43.454Z,10.93
2019-04-20T11:20:12.742Z,9.05
2019-04-20T11:22:42.209Z,10.90
2019-04-20T11:25:12.367Z,6.65
2019-04-20T11:27:40.813Z,8.00
2019-04-20T11:30:10.123Z,13.43
2019-04-20T11:33:00.748Z,10.75
2019-04-20T11:35:34.700Z,6.83
2019-04-20T11:37:58.609Z,7.25
2019-04-20T11:40:27.263Z,6.70
2019-04-20T11:42:55.441Z,8.23
2019-04-20T11:45:30.909Z,11.00
2019-04-20T11:48:01.260Z,8.65
2019-04-20T11:50:31.598Z,12.23
2019-04-20T11:52:59.874Z,9.17
2019-04-20T11:55:28.628Z,9.35
2019-04-20T11:57:59.022Z,15.90
2019-04-20T12:00:45.740Z,8.18
2019-04-20T12:03:25.011Z,8.03
2019-04-20T12:05:54.910Z,9.33
2019-04-20T12:08:18.726Z,10.55
2019-04-20T12:10:50.295Z,13.18
2019-04-20T12:13:18.397Z,10.50
2019-04-20T12:15:47.563Z,12.30
2019-04-20T12:18:17.817Z,9.63
2019-04-20T12:20:47.076Z,11.45
2019-04-20T12:23:16.020Z,9.48
2019-04-20T12:25:44.613Z,10.57
2019-04-20T12:28:13.671Z,11.10
2019-04-20T12:30:42.118Z,8.98
2019-04-20T12:33:11.402Z,9.98
2019-04-20T12:35:40.355Z,6.83
2019-04-20T12:38:10.522Z,13.32
2019-04-20T12:40:39.830Z,13.67
2019-04-20T12:43:08.969Z,10.83
2019-04-20T12:45:37.799Z,11.97
2019-04-20T12:48:06.223Z,10.72
2019-04-20T12:50:35.294Z,10.57
2019-04-20T12:53:04.430Z,9.38
2019-04-20T12:55:32.664Z,13.20
2019-04-20T12:58:01.069Z,11.70
2019-04-20T13:00:41.763Z,11.15
2019-04-20T13:03:11.616Z,11.30
2019-04-20T13:05:40.193Z,11.50
2019-04-20T13:08:09.424Z,8.08
2019-04-20T13:10:37.616Z,10.20
2019-04-20T13:13:14.658Z,11.20
2019-04-20T13:16:02.644Z,8.93
2019-04-20T13:18:41.253Z,11.30
2019-04-20T13:21:09.329Z,7.80
2019-04-20T13:23:37.777Z,8.50
2019-04-20T13:26:08.767Z,10.10
2019-04-20T13:28:37.073Z,13.00
2019-04-20T13:31:06.064Z,9.78
2019-04-20T13:33:34.486Z,10.03
2019-04-20T13:36:04.103Z,11.43
2019-04-20T13:38:32.471Z,9.30
2019-04-20T13:41:01.902Z,9.40
2019-04-20T13:43:30.363Z,9.27
2019-04-20T13:45:59.081Z,5.87
2019-04-20T13:48:28.885Z,9.75
2019-04-20T13:50:58.270Z,12.90
2019-04-20T13:53:27.486Z,13.78
2019-04-20T13:55:56.056Z,8.75
2019-04-20T13:58:43.292Z,8.83
2019-04-20T14:01:30.808Z,10.10
2019-04-20T14:04:17.630Z,9.80
2019-04-20T14:06:47.916Z,10.05
2019-04-20T14:09:17.205Z,12.18
2019-04-20T14:11:47.503Z,12.00
2019-04-20T14:14:17.094Z,7.70
2019-04-20T14:16:45.484Z,10.37
2019-04-20T14:19:14.397Z,8.55
2019-04-20T14:21:43.920Z,12.58
2019-04-20T14:24:13.072Z,11.80
2019-04-20T14:26:43.731Z,12.18
2019-04-20T14:29:12.661Z,8.88
2019-04-20T14:31:41.857Z,9.90
2019-04-20T14:34:10.959Z,10.63
2019-04-20T14:36:39.571Z,9.00
2019-04-20T14:39:16.206Z,12.97
2019-04-20T14:41:56.255Z,8.43
2019-04-20T14:44:23.710Z,7.92
2019-04-20T14:46:51.756Z,14.13
2019-04-20T14:49:20.850Z,14.23
2019-04-20T14:51:49.981Z,12.50
2019-04-20T14:54:19.233Z,10.58
2019-04-20T14:56:47.543Z,10.78
2019-04-20T14:59:23.622Z,6.83
2019-04-20T15:01:58.669Z,8.53
2019-04-20T15:04:29.058Z,10.60
2019-04-20T15:06:58.169Z,12.68
2019-04-20T15:09:26.792Z,10.40
2019-04-20T15:11:55.036Z,8.40
2019-04-20T15:14:23.043Z,8.38
2019-04-20T15:16:51.136Z,12.18
2019-04-20T15:19:33.649Z,11.00
2019-04-20T15:22:03.453Z,7.92
2019-04-20T15:24:31.602Z,11.48
2019-04-20T15:27:00.516Z,8.77
2019-04-20T15:29:30.421Z,9.05
2019-04-20T15:31:59.915Z,12.93
2019-04-20T15:34:28.859Z,9.25
2019-04-20T15:36:58.184Z,12.90
2019-04-20T15:39:27.380Z,8.70
2019-04-20T15:41:55.350Z,9.10
2019-04-20T15:44:25.051Z,12.67
2019-04-20T15:46:53.233Z,8.80
2019-04-20T15:49:22.141Z,10.85
2019-04-20T15:51:50.190Z,10.05
2019-04-20T15:54:20.007Z,15.48
2019-04-20T15:56:54.482Z,8.63
2019-04-20T15:59:17.658Z,9.60
2019-04-20T16:01:49.347Z,12.30
2019-04-20T16:04:39.081Z,12.37
2019-04-20T16:07:05.439Z,11.73
2019-04-20T16:09:34.079Z,12.15
2019-04-20T16:12:02.703Z,13.00
2019-04-20T16:14:31.294Z,11.30
2019-04-20T16:17:00.705Z,10.33
2019-04-20T16:19:40.825Z,8.43
2019-04-20T16:21:59.887Z,9.70
2019-04-20T16:24:32.885Z,11.20
2019-04-20T16:27:27.725Z,12.10
2019-04-20T16:29:55.876Z,9.50
2019-04-20T16:32:24.710Z,12.68
2019-04-20T16:34:52.866Z,13.38
2019-04-20T16:37:22.285Z,10.80
2019-04-20T16:39:50.968Z,19.20
2019-04-20T16:42:20.340Z,10.85
2019-04-20T16:44:49.380Z,9.78
2019-04-20T16:47:18.444Z,13.85
2019-04-20T16:49:46.833Z,9.73
2019-04-20T16:52:15.132Z,12.90
2019-04-20T16:54:43.883Z,12.70
2019-04-20T16:57:13.096Z,10.25
2019-04-20T16:59:48.166Z,13.28
2019-04-20T17:02:14.412Z,10.63
2019-04-20T17:04:48.866Z,14.45
2019-04-20T17:07:24.942Z,16.52
2019-04-20T17:09:54.023Z,11.97
2019-04-20T17:12:22.124Z,12.30
2019-04-20T17:14:51.604Z,12.00
2019-04-20T17:17:21.835Z,11.33
2019-04-20T17:19:51.477Z,10.33
2019-04-20T17:22:19.634Z,11.88
2019-04-20T17:24:47.695Z,13.55
2019-04-20T17:27:30.829Z,11.95
2019-04-20T17:30:23.182Z,11.40
2019-04-20T17:32:52.936Z,12.20
2019-04-20T17:35:37.052Z,12.73
2019-04-20T17:37:53.225Z,11.93
2019-04-20T17:40:41.127Z,10.63
2019-04-20T17:43:02.643Z,9.30
2019-04-20T17:45:36.389Z,11.05
2019-04-20T17:48:07.257Z,18.23
2019-04-20T17:50:44.100Z,11.85
2019-04-20T17:53:05.216Z,12.50
2019-04-20T17:55:36.923Z,8.90
2019-04-20T17:57:57.449Z,7.62
2019-04-20T18:00:47.457Z,7.03
2019-04-20T18:03:50.971Z,9.58
2019-04-20T18:06:10.827Z,6.55
2019-04-20T18:08:40.204Z,8.48
2019-04-20T18:10:58.760Z,7.77
2019-04-20T18:13:21.809Z,9.58
2019-04-20T18:16:05.121Z,11.08
2019-04-20T18:18:47.899Z,15.15
2019-04-20T18:21:24.941Z,10.53
2019-04-20T18:23:54.104Z,11.20
2019-04-20T18:26:43.242Z,9.80
2019-04-20T18:29:10.736Z,12.82
2019-04-20T18:31:51.447Z,11.35
2019-04-20T18:34:29.166Z,13.23
2019-04-20T18:36:56.527Z,13.32
2019-04-20T18:39:34.746Z,9.85
2019-04-20T18:42:01.104Z,9.80
2019-04-20T18:44:30.601Z,10.15
2019-04-20T18:47:23.664Z,8.65
2019-04-20T18:49:35.078Z,10.53
2019-04-20T18:51:53.853Z,10.35
2019-04-20T18:54:28.078Z,9.50
2019-04-20T18:56:54.820Z,10.55
2019-04-20T18:59:30.245Z,9.50
2019-04-20T19:01:53.036Z,12.60
2019-04-20T19:04:21.836Z,8.90
2019-04-20T19:06:50.123Z,11.70
2019-04-20T19:09:24.209Z,9.87
2019-04-20T19:11:55.855Z,13.63
2019-04-20T19:14:40.855Z,11.18
2019-04-20T19:17:38.944Z,11.35
2019-04-20T19:20:01.384Z,11.18
2019-04-20T19:22:28.179Z,10.90
2019-04-20T19:24:57.787Z,12.27
2019-04-20T19:27:36.985Z,14.28
2019-04-20T19:30:11.617Z,16.07
2019-04-20T19:32:39.985Z,17.50
2019-04-20T19:35:04.342Z,11.95
2019-04-20T19:37:31.156Z,11.30
2019-04-20T19:40:06.963Z,12.90
2019-04-20T19:42:39.255Z,8.33
2019-04-20T19:45:17.579Z,9.65
2019-04-20T19:47:43.770Z,9.75
2019-04-20T19:50:25.255Z,12.23
2019-04-20T19:52:51.630Z,8.78
2019-04-20T19:55:16.137Z,8.55
2019-04-20T19:57:42.476Z,11.18
2019-04-20T19:59:57.752Z,10.43
2019-04-20T20:02:25.956Z,10.53
2019-04-20T20:04:59.241Z,9.23
2019-04-20T20:07:33.946Z,7.80
2019-04-20T20:10:00.329Z,11.18
2019-04-20T20:12:27.303Z,10.88
2019-04-20T20:14:57.285Z,9.60
2019-04-20T20:17:48.438Z,8.10
2019-04-20T20:20:25.105Z,7.90
2019-04-20T20:22:37.178Z,8.23
2019-04-20T20:24:58.890Z,8.58
2019-04-20T20:27:34.734Z,8.90
2019-04-20T20:30:08.244Z,9.08
2019-04-20T20:32:48.626Z,9.97
2019-04-20T20:35:09.118Z,12.13
2019-04-20T20:37:39.964Z,7.70
2019-04-20T20:40:10.144Z,7.03
2019-04-20T20:42:45.786Z,6.22
2019-04-20T20:45:14.667Z,5.65
2019-04-20T20:47:49.030Z,8.33
2019-04-20T20:50:20.410Z,5.95
2019-04-20T20:52:50.563Z,8.85
2019-04-20T20:55:17.251Z,7.37
2019-04-20T20:57:44.549Z,6.22
2019-04-20T21:00:19.665Z,8.80
2019-04-20T21:02:44.540Z,6.95
2019-04-20T21:05:06.089Z,7.70
2019-04-20T21:07:36.431Z,6.75
2019-04-20T21:10:06.175Z,7.97
2019-04-20T21:12:42.793Z,8.83
2019-04-20T21:15:11.169Z,9.33
2019-04-20T21:17:55.888Z,7.00
2019-04-20T21:20:22.460Z,7.40
2019-04-20T21:22:55.083Z,8.23
2019-04-20T21:25:12.933Z,7.28
2019-04-20T21:27:42.317Z,8.17
2019-04-20T21:30:16.860Z,7.05
2019-04-20T21:32:45.689Z,8.05
2019-04-20T21:35:12.843Z,6.62
2019-04-20T21:37:41.880Z,7.65
2019-04-20T21:40:21.346Z,7.10
2019-04-20T21:42:49.764Z,8.30
2019-04-20T21:45:19.454Z,7.00
2019-04-20T21:47:44.716Z,6.60
2019-04-20T21:50:31.209Z,7.90
2019-04-20T21:52:46.552Z,9.98
2019-04-20T21:55:14.022Z,9.40
2019-04-20T21:57:50.132Z,7.30
2019-04-20T22:00:24.954Z,7.03
2019-04-20T22:02:56.508Z,7.72
2019-04-20T22:05:16.852Z,7.72
2019-04-20T22:07:46.256Z,7.25
2019-04-20T22:10:20.243Z,8.53
2019-04-20T22:12:53.557Z,6.62
2019-04-20T22:15:24.048Z,7.30
2019-04-20T22:17:48.545Z,9.00
2019-04-20T22:20:26.431Z,10.00
2019-04-20T22:22:59.463Z,7.37
2019-04-20T22:25:46.262Z,8.95
2019-04-20T22:28:05.199Z,7.78
2019-04-20T22:30:48.633Z,10.13
2019-04-20T22:33:33.098Z,7.78
2019-04-20T22:36:35.588Z,9.60
2019-04-20T22:39:23.585Z,7.90
2019-04-20T22:42:09.157Z,9.28
2019-04-20T22:45:01.927Z,6.33
2019-04-20T22:47:58.835Z,10.60
2019-04-20T22:50:51.296Z,7.17
2019-04-20T22:53:36.550Z,9.30
2019-04-20T22:56:34.204Z,6.60
2019-04-20T22:59:02.165Z,6.58
2019-04-20T23:01:37.551Z,6.87
2019-04-20T23:04:06.493Z,6.20
2019-04-20T23:06:57.191Z,7.75
2019-04-20T23:09:28.770Z,6.30
2019-04-20T23:12:17.760Z,7.42
2019-04-20T23:15:00.457Z,8.98
2019-04-20T23:17:48.434Z,7.80
2019-04-20T23:20:45.920Z,7.17
2019-04-20T23:23:41.500Z,7.67
2019-04-20T23:26:49.034Z,9.43
2019-04-20T23:29:32.651Z,7.77
2019-04-20T23:32:16.375Z,6.47
2019-04-20T23:34:55.938Z,7.40
2019-04-20T23:37:29.913Z,8.33
2019-04-20T23:40:25.671Z,6.78
2019-04-20T23:43:28.069Z,7.33
2019-04-20T23:46:26.449Z,7.50
2019-04-20T23:49:27.275Z,7.80
2019-04-20T23:52:16.632Z,8.55
2019-04-20T23:54:50.508Z,13.50
2019-04-20T23:57:29.323Z,8.53
